Time;durP1;ratioP1;P1;durP2;ratioP2;P2;SDS_P1;SDS_P2;PMS_P1;PMS_P2;Temp;Humidity;BMP_temperature;BMP_pressure;BME280_temperature;BME280_humidity;BME280_pressure;Samples;Min_cycle;Max_cycle;Signal;HPM_P1;HPM_P2
2024/02/13 00:01:08;;;;;;;8.27;6.00;;;;;;;1.05;100.00;99074.88;5033413;28;20076;-67
2024/02/13 00:03:34;;;;;;;8.60;6.23;;;;;;;1.02;100.00;99069.88;5016927;28;20076;-68
2024/02/13 00:06:00;;;;;;;10.13;6.00;;;;;;;1.00;100.00;99066.56;4997162;28;20096;-67
2024/02/13 00:08:27;;;;;;;9.13;5.90;;;;;;;0.97;100.00;99066.78;5000489;28;20049;-67
2024/02/13 00:11:06;;;;;;;9.83;5.40;;;;;;;1.02;100.00;99055.03;5001291;28;20416;-67
2024/02/13 00:13:34;;;;;;;6.03;4.80;;;;;;;0.94;100.00;99062.59;5021252;28;20044;-66
2024/02/13 00:16:00;;;;;;;6.17;4.90;;;;;;;0.89;100.00;99062.09;5004822;28;20152;-67
2024/02/13 00:18:26;;;;;;;7.30;4.97;;;;;;;0.86;100.00;99071.97;5020882;28;20123;-67
2024/02/13 00:20:54;;;;;;;5.03;4.47;;;;;;;0.84;100.00;99068.63;5004113;28;20764;-67
2024/02/13 00:23:21;;;;;;;6.30;4.87;;;;;;;0.85;100.00;99063.28;5021302;28;20052;-67
2024/02/13 00:25:48;;;;;;;7.87;5.07;;;;;;;0.82;100.00;99067.88;5020683;28;20085;-66
2024/02/13 00:28:17;;;;;;;7.30;5.10;;;;;;;0.80;100.00;99075.84;4981162;28;20112;-66
2024/02/13 00:30:44;;;;;;;8.37;5.27;;;;;;;0.79;100.00;99075.94;4997726;28;20065;-66
2024/02/13 00:33:31;;;;;;;7.60;5.03;;;;;;;0.84;100.00;99077.31;4973614;28;20064;-66
2024/02/13 00:36:17;;;;;;;7.30;4.80;;;;;;;0.80;100.00;99075.03;4964277;28;20401;-66
2024/02/13 00:38:45;;;;;;;7.60;5.10;;;;;;;0.80;100.00;99075.03;4984615;28;20152;-66
2024/02/13 00:41:14;;;;;;;6.90;4.87;;;;;;;0.74;100.00;99086.75;4969347;28;20038;-66
2024/02/13 00:43:41;;;;;;;5.47;4.60;;;;;;;0.74;100.00;99078.91;4982174;28;20408;-66
2024/02/13 00:46:09;;;;;;;6.67;4.43;;;;;;;0.70;100.00;99087.06;4950685;28;20069;-67
2024/02/13 00:48:36;;;;;;;6.93;5.40;;;;;;;0.68;100.00;99081.94;4949720;28;20100;-67
2024/02/13 00:51:03;;;;;;;8.10;5.40;;;;;;;0.64;100.00;99083.13;4965120;28;20473;-66
2024/02/13 00:53:31;;;;;;;7.87;5.57;;;;;;;0.63;100.00;99098.91;4997885;28;20057;-67
2024/02/13 00:55:58;;;;;;;9.90;5.90;;;;;;;0.58;100.00;99090.56;4948589;28;20056;-67
2024/02/13 00:58:26;;;;;;;9.30;6.17;;;;;;;0.55;100.00;99096.00;4948749;28;20377;-67
2024/02/13 01:00:53;;;;;;;9.50;5.90;;;;;;;0.45;100.00;99110.66;4965035;28;20041;-66
2024/02/13 01:03:19;;;;;;;7.90;5.37;;;;;;;0.47;100.00;99106.16;4964704;28;20058;-66
2024/02/13 01:05:46;;;;;;;7.97;5.77;;;;;;;0.44;100.00;99107.22;4948571;28;20522;-67
2024/02/13 01:08:12;;;;;;;7.77;5.50;;;;;;;0.38;100.00;99106.81;4981048;28;20085;-68
2024/02/13 01:10:43;;;;;;;9.43;5.70;;;;;;;0.33;100.00;99108.91;4981521;28;20041;-68
2024/02/13 01:13:09;;;;;;;8.17;5.20;;;;;;;0.32;100.00;99105.47;4964436;28;20143;-68
2024/02/13 01:15:36;;;;;;;6.97;4.97;;;;;;;0.34;100.00;99113.19;5031491;28;20091;-71
2024/02/13 01:18:03;;;;;;;6.33;4.73;;;;;;;0.33;100.00;99111.50;5020879;28;20056;-68
2024/02/13 01:20:31;;;;;;;8.30;5.10;;;;;;;0.31;100.00;99116.84;5036213;28;20041;-68
2024/02/13 01:22:57;;;;;;;8.27;5.17;;;;;;;0.25;100.00;99109.44;5036845;28;20099;-68
2024/02/13 01:25:25;;;;;;;7.90;5.33;;;;;;;0.25;100.00;99119.88;5020820;28;20049;-68
2024/02/13 01:27:52;;;;;;;6.57;4.53;;;;;;;0.27;100.00;99119.78;5054677;28;20106;-68
2024/02/13 01:30:17;;;;;;;8.00;4.73;;;;;;;0.28;100.00;99114.44;5005167;28;20045;-68
2024/02/13 01:32:48;;;;;;;7.97;5.17;;;;;;;0.32;100.00;99121.13;5037317;28;20445;-68
2024/02/13 01:35:16;;;;;;;7.40;4.85;;;;;;;0.31;100.00;99123.84;5020087;28;20051;-68
2024/02/13 01:37:43;;;;;;;7.93;5.00;;;;;;;0.26;100.00;99125.94;5003437;28;20045;-67
2024/02/13 01:40:11;;;;;;;8.53;5.33;;;;;;;0.26;100.00;99134.63;5019595;28;20151;-67
2024/02/13 01:42:37;;;;;;;7.30;5.13;;;;;;;0.27;100.00;99140.66;4987216;28;20053;-73
2024/02/13 01:45:07;;;;;;;9.50;5.47;;;;;;;0.29;100.00;99136.19;5019867;28;20044;-69
2024/02/13 01:47:48;;;;;;;7.60;5.40;;;;;;;0.26;100.00;99139.84;5021019;28;20060;-69
2024/02/13 01:50:20;;;;;;;8.53;5.60;;;;;;;0.26;100.00;99128.56;5038572;28;20136;-67
2024/02/13 01:52:49;;;;;;;9.50;5.57;;;;;;;0.27;100.00;99132.81;5055306;28;20435;-67
2024/02/13 01:55:16;;;;;;;7.83;5.53;;;;;;;0.27;100.00;99149.34;5038550;28;20110;-67
2024/02/13 01:57:45;;;;;;;8.57;5.80;;;;;;;0.28;100.00;99145.78;5038699;28;20332;-67
2024/02/13 02:00:15;;;;;;;8.63;5.53;;;;;;;0.28;100.00;99140.56;5038525;28;20394;-67
2024/02/13 02:02:43;;;;;;;8.10;5.38;;;;;;;0.36;100.00;99153.94;5071768;28;20087;-67
2024/02/13 02:05:13;;;;;;;9.63;5.90;;;;;;;0.31;100.00;99150.78;5038448;28;20056;-69
2024/02/13 02:08:01;;;;;;;8.33;5.50;;;;;;;0.30;100.00;99159.56;5030754;28;20055;-67
2024/02/13 02:10:27;;;;;;;9.73;6.47;;;;;;;0.26;100.00;99162.50;5043047;28;20153;-67
2024/02/13 02:13:01;;;;;;;12.57;6.90;;;;;;;0.30;100.00;99158.72;5075891;28;20166;-70
2024/02/13 02:15:41;;;;;;;10.87;6.43;;;;;;;0.27;100.00;99167.63;5006844;28;20383;-68
2024/02/13 02:18:10;;;;;;;11.37;6.60;;;;;;;0.25;100.00;99177.31;5022384;28;20044;-68
2024/02/13 02:20:37;;;;;;;13.00;6.90;;;;;;;0.23;100.00;99175.78;5033932;28;20479;-67
2024/02/13 02:23:04;;;;;;;12.43;7.23;;;;;;;0.19;100.00;99174.28;5002480;28;20060;-67
2024/02/13 02:25:32;;;;;;;13.37;7.67;;;;;;;0.17;100.00;99176.19;5018339;28;20053;-67
2024/02/13 02:28:18;;;;;;;11.53;7.00;;;;;;;0.13;100.00;99183.38;5009878;28;20475;-67
2024/02/13 02:31:02;;;;;;;11.90;6.93;;;;;;;0.09;100.00;99176.72;5008106;28;20045;-67
2024/02/13 02:33:29;;;;;;;15.03;7.70;;;;;;;0.03;100.00;99176.28;4985778;28;20052;-67
2024/02/13 02:35:55;;;;;;;16.80;8.63;;;;;;;-0.09;100.00;99173.56;5001358;28;20049;-67
2024/02/13 02:38:26;;;;;;;16.53;8.07;;;;;;;-0.11;100.00;99182.44;5018848;28;20037;-67
2024/02/13 02:40:54;;;;;;;13.17;7.73;;;;;;;-0.15;100.00;99179.19;4985681;28;20581;-67
2024/02/13 02:43:24;;;;;;;15.30;7.90;;;;;;;-0.25;100.00;99191.16;5003406;28;20048;-67
2024/02/13 02:45:51;;;;;;;14.90;8.10;;;;;;;-0.32;100.00;99187.31;5023347;28;20143;-67
2024/02/13 02:48:19;;;;;;;13.33;7.77;;;;;;;-0.32;100.00;99196.91;5005163;28;20080;-67
2024/02/13 02:50:45;;;;;;;16.33;8.87;;;;;;;-0.48;100.00;99189.22;5021478;28;20539;-67
2024/02/13 02:53:11;;;;;;;15.80;8.27;;;;;;;-0.44;100.00;99208.13;5021194;28;20183;-67
2024/02/13 02:55:42;;;;;;;14.20;7.90;;;;;;;-0.42;100.00;99211.50;5022222;28;20044;-68
2024/02/13 02:58:09;;;;;;;16.13;8.45;;;;;;;-0.46;100.00;99213.44;5039999;28;20048;-67
2024/02/13 03:00:35;;;;;;;18.30;9.00;;;;;;;-0.49;100.00;99205.84;5006676;28;20051;-68
2024/02/13 03:03:13;;;;;;;17.93;8.90;;;;;;;-0.51;100.00;99202.47;5007133;28;20535;-68
2024/02/13 03:05:40;;;;;;;14.07;8.43;;;;;;;-0.51;100.00;99205.09;5002896;28;20088;-67
2024/02/13 03:08:07;;;;;;;15.73;8.53;;;;;;;-0.53;100.00;99204.38;5002233;28;20041;-68
2024/02/13 03:10:36;;;;;;;18.27;10.03;;;;;;;-0.55;100.00;99200.16;5018895;28;20044;-67
2024/02/13 03:13:05;;;;;;;20.27;9.30;;;;;;;-0.63;100.00;99218.91;5018391;28;20041;-67
2024/02/13 03:15:34;;;;;;;18.10;9.27;;;;;;;-0.65;100.00;99222.56;5034688;28;20037;-67
2024/02/13 03:18:03;;;;;;;16.30;9.07;;;;;;;-0.60;100.00;99221.34;5051135;28;20516;-67
2024/02/13 03:20:30;;;;;;;15.50;8.40;;;;;;;-0.67;100.00;99221.81;5018768;28;20049;-68
2024/02/13 03:23:00;;;;;;;16.97;8.80;;;;;;;-0.75;100.00;99219.72;5003311;28;20488;-68
2024/02/13 03:25:29;;;;;;;13.97;8.50;;;;;;;-0.75;100.00;99224.94;5018037;28;20135;-68
2024/02/13 03:28:16;;;;;;;17.00;9.37;;;;;;;-0.91;100.00;99218.19;5050700;28;20532;-68
2024/02/13 03:30:45;;;;;;;18.10;8.95;;;;;;;-0.92;100.00;99222.56;5050400;28;20071;-68
2024/02/13 03:33:11;;;;;;;18.70;9.20;;;;;;;-0.94;100.00;99228.81;5019832;28;20057;-68
2024/02/13 03:35:38;;;;;;;14.47;8.27;;;;;;;-0.93;100.00;99228.72;5036491;28;20433;-68
2024/02/13 03:38:06;;;;;;;16.60;8.30;;;;;;;-0.87;100.00;99230.91;5001332;28;20048;-68
2024/02/13 03:40:33;;;;;;;14.00;8.60;;;;;;;-0.87;100.00;99236.13;5001077;28;20049;-67
2024/02/13 03:42:59;;;;;;;16.83;8.60;;;;;;;-0.95;100.00;99245.34;5000715;28;20052;-68
2024/02/13 03:45:25;;;;;;;14.63;8.37;;;;;;;-0.91;100.00;99241.63;5009320;28;20090;-67
2024/02/13 03:48:11;;;;;;;18.17;9.27;;;;;;;-0.97;100.00;99245.44;5020280;28;20080;-68
2024/02/13 03:50:37;;;;;;;16.03;8.53;;;;;;;-0.91;100.00;99250.31;5000398;28;20072;-68
2024/02/13 03:53:05;;;;;;;18.30;8.83;;;;;;;-0.92;100.00;99248.63;5040304;28;20111;-67
2024/02/13 03:55:31;;;;;;;17.47;8.10;;;;;;;-0.91;100.00;99258.13;5000277;28;20056;-67
2024/02/13 03:57:57;;;;;;;16.80;8.73;;;;;;;-0.95;100.00;99267.06;4993339;28;20432;-67
2024/02/13 04:00:23;;;;;;;15.50;8.37;;;;;;;-0.94;100.00;99262.69;5008180;28;20042;-67
2024/02/13 04:02:54;;;;;;;17.10;8.90;;;;;;;-0.95;100.00;99274.88;4991675;28;20049;-67
2024/02/13 04:05:21;;;;;;;17.03;9.40;;;;;;;-0.96;100.00;99283.63;4977284;28;20053;-67
2024/02/13 04:07:47;;;;;;;16.60;9.17;;;;;;;-0.93;100.00;99283.44;4991661;28;20064;-68
2024/02/13 04:10:18;;;;;;;19.77;10.47;;;;;;;-0.93;100.00;99283.44;5001761;28;20420;-70
2024/02/13 04:13:06;;;;;;;15.97;9.30;;;;;;;-0.95;100.00;99305.28;5033282;28;20060;-71
2024/02/13 04:15:37;;;;;;;19.80;10.30;;;;;;;-0.97;100.00;99299.38;5010760;28;20033;-68
2024/02/13 04:18:07;;;;;;;17.27;8.87;;;;;;;-1.07;100.00;99304.28;4982477;28;20056;-69
2024/02/13 04:20:34;;;;;;;17.10;9.53;;;;;;;-1.11;100.00;99308.03;5007669;28;20059;-69
2024/02/13 04:23:03;;;;;;;18.07;8.63;;;;;;;-1.10;100.00;99308.84;5031447;28;20056;-69
2024/02/13 04:25:29;;;;;;;18.10;9.03;;;;;;;-1.13;100.00;99315.09;4990303;28;20129;-67
2024/02/13 04:27:55;;;;;;;15.37;8.67;;;;;;;-1.15;100.00;99311.75;5020525;28;20139;-69
2024/02/13 04:30:21;;;;;;;19.23;8.90;;;;;;;-1.09;100.00;99315.75;5009028;28;20116;-68
2024/02/13 04:32:47;;;;;;;15.97;8.70;;;;;;;-1.13;100.00;99309.88;4983917;28;20116;-72
2024/02/13 04:35:13;;;;;;;20.27;9.20;;;;;;;-1.13;100.00;99322.06;4977227;28;20070;-65
2024/02/13 04:37:38;;;;;;;18.20;8.83;;;;;;;-1.18;100.00;99319.75;4993142;28;20058;-65
2024/02/13 04:40:06;;;;;;;20.00;9.40;;;;;;;-1.12;100.00;99321.97;4993095;28;20397;-64
2024/02/13 04:42:51;;;;;;;14.43;7.80;;;;;;;-1.06;100.00;99331.19;5014838;28;20057;-64
2024/02/13 04:45:17;;;;;;;17.10;8.20;;;;;;;-1.05;100.00;99338.06;5023280;28;20061;-65
2024/02/13 04:47:46;;;;;;;18.43;8.77;;;;;;;-1.07;100.00;99348.59;5026861;28;20060;-63
2024/02/13 04:50:13;;;;;;;19.57;9.40;;;;;;;-1.04;100.00;99343.19;5010837;28;20471;-64
2024/02/13 04:52:39;;;;;;;15.83;8.53;;;;;;;-1.03;100.00;99347.47;5018231;28;20059;-62
2024/02/13 04:55:05;;;;;;;16.70;7.67;;;;;;;-1.06;100.00;99352.03;4998808;28;20541;-64
2024/02/13 04:57:33;;;;;;;15.90;7.77;;;;;;;-1.02;100.00;99348.31;5016657;28;20045;-63
2024/02/13 05:00:05;;;;;;;16.93;7.53;;;;;;;-0.98;100.00;99357.59;5016373;28;20072;-64
2024/02/13 05:02:39;;;;;;;17.53;8.40;;;;;;;-1.04;100.00;99358.81;5033767;28;20053;-63
2024/02/13 05:07:50;;;;;;;18.73;8.27;;;;;;;-1.04;100.00;99368.41;5020502;28;20384;-70
2024/02/13 05:10:16;;;;;;;16.17;8.57;;;;;;;-1.07;100.00;99369.44;5004807;28;20044;-70
2024/02/13 05:13:02;;;;;;;20.67;8.97;;;;;;;-1.13;100.00;99368.97;5053161;28;20045;-66
2024/02/13 05:15:29;;;;;;;18.33;8.50;;;;;;;-1.09;100.00;99375.69;5003869;28;20463;-68
2024/02/13 05:17:56;;;;;;;19.37;8.57;;;;;;;-1.13;100.00;99382.00;5053668;28;20048;-68
2024/02/13 05:20:23;;;;;;;16.63;8.20;;;;;;;-1.14;100.00;99388.13;5051884;28;20055;-69
2024/02/13 05:22:49;;;;;;;20.90;9.73;;;;;;;-1.15;100.00;99400.31;5048912;28;20072;-65
2024/02/13 05:25:15;;;;;;;19.53;9.03;;;;;;;-1.20;100.00;99409.34;5030147;28;20041;-70
2024/02/13 05:27:42;;;;;;;16.73;8.17;;;;;;;-1.16;100.00;99414.28;5053009;28;20514;-71
2024/02/13 05:30:09;;;;;;;16.97;8.00;;;;;;;-1.17;100.00;99415.19;5054023;28;20037;-72
2024/02/13 05:32:36;;;;;;;16.70;8.10;;;;;;;-1.11;100.00;99429.66;5052339;28;20044;-65
2024/02/13 05:35:02;;;;;;;16.60;8.53;;;;;;;-1.11;100.00;99440.91;5035806;28;20055;-66
2024/02/13 05:37:33;;;;;;;16.67;8.50;;;;;;;-1.08;100.00;99447.72;5036157;28;20037;-67
2024/02/13 05:39:59;;;;;;;20.23;9.90;;;;;;;-1.11;100.00;99443.53;5053247;28;20049;-67
2024/02/13 05:42:25;;;;;;;14.80;8.20;;;;;;;-1.04;100.00;99442.22;5035558;28;20048;-67
2024/02/13 05:44:51;;;;;;;20.23;8.97;;;;;;;-1.03;100.00;99446.50;5052580;28;20040;-67
2024/02/13 05:47:18;;;;;;;18.80;9.10;;;;;;;-0.96;100.00;99442.63;5052273;28;20513;-67
2024/02/13 05:49:45;;;;;;;17.87;8.90;;;;;;;-0.96;100.00;99453.03;5051996;28;20045;-66
2024/02/13 05:52:12;;;;;;;19.43;9.20;;;;;;;-0.93;100.00;99445.03;5052708;28;20041;-67
2024/02/13 05:54:39;;;;;;;18.03;8.10;;;;;;;-0.87;100.00;99454.25;5051711;28;20330;-68
2024/02/13 05:57:06;;;;;;;17.03;7.83;;;;;;;-0.88;100.00;99453.44;5035542;28;20044;-67
2024/02/13 05:59:33;;;;;;;16.50;8.37;;;;;;;-0.87;100.00;99457.69;5003218;28;20044;-66
2024/02/13 06:01:58;;;;;;;17.27;8.23;;;;;;;-0.85;100.00;99458.47;5035344;28;20044;-67
2024/02/13 06:04:24;;;;;;;17.73;8.13;;;;;;;-0.78;100.00;99474.53;5052599;28;20548;-70
2024/02/13 06:06:59;;;;;;;18.23;8.93;;;;;;;-0.80;100.00;99471.22;5051621;28;20064;-71
2024/02/13 06:09:25;;;;;;;16.63;8.60;;;;;;;-0.78;100.00;99478.00;5053736;28;20147;-72
2024/02/13 06:11:55;;;;;;;18.40;8.53;;;;;;;-0.77;100.00;99481.47;5018343;28;20041;-68
2024/02/13 06:14:22;;;;;;;16.73;8.43;;;;;;;-0.83;100.00;99476.63;5051606;28;20119;-68
2024/02/13 06:16:48;;;;;;;17.63;8.63;;;;;;;-0.90;100.00;99486.56;5052567;28;20047;-67
2024/02/13 06:19:13;;;;;;;19.77;8.93;;;;;;;-0.92;100.00;99482.38;5051637;28;20033;-68
2024/02/13 06:21:40;;;;;;;18.70;9.17;;;;;;;-0.91;100.00;99497.91;5051805;28;20418;-69
2024/02/13 06:24:06;;;;;;;18.00;9.00;;;;;;;-0.98;100.00;99493.97;5017733;28;20051;-70
2024/02/13 06:26:34;;;;;;;18.83;9.60;;;;;;;-0.98;100.00;99504.41;5019025;28;20095;-68
2024/02/13 06:29:00;;;;;;;18.23;8.57;;;;;;;-1.01;100.00;99503.75;5034681;28;20041;-69
2024/02/13 06:31:33;;;;;;;16.43;8.30;;;;;;;-0.93;100.00;99501.53;5051954;28;20051;-68
2024/02/13 06:33:59;;;;;;;18.37;9.50;;;;;;;-1.01;100.00;99501.13;5050884;28;20048;-68
2024/02/13 06:36:26;;;;;;;20.87;10.00;;;;;;;-0.99;100.00;99502.75;5049704;28;20056;-68
2024/02/13 06:38:52;;;;;;;21.57;10.30;;;;;;;-1.01;100.00;99509.78;5016663;28;20383;-67
2024/02/13 06:41:18;;;;;;;18.47;9.07;;;;;;;-1.01;100.00;99520.22;5033924;28;20068;-68
2024/02/13 06:43:44;;;;;;;17.67;8.90;;;;;;;-0.97;100.00;99518.28;5033354;28;20052;-69
2024/02/13 06:46:10;;;;;;;15.03;8.23;;;;;;;-0.94;100.00;99529.34;5033124;28;20163;-69
2024/02/13 06:48:36;;;;;;;18.17;8.63;;;;;;;-0.93;100.00;99538.00;5049618;28;20127;-68
2024/02/13 06:51:02;;;;;;;20.20;9.10;;;;;;;-0.95;100.00;99526.84;5049444;28;20118;-68
2024/02/13 06:53:29;;;;;;;17.50;8.73;;;;;;;-0.88;100.00;99533.38;5033045;28;20045;-67
2024/02/13 06:55:55;;;;;;;17.20;8.33;;;;;;;-0.91;100.00;99534.41;5016354;28;20053;-67
2024/02/13 06:58:21;;;;;;;15.30;7.50;;;;;;;-0.85;100.00;99534.06;5032905;28;20163;-67
2024/02/13 07:00:47;;;;;;;15.10;7.63;;;;;;;-0.82;100.00;99536.47;5032921;28;20479;-67
2024/02/13 07:03:13;;;;;;;14.83;8.13;;;;;;;-0.81;100.00;99538.16;5016801;28;20147;-68
2024/02/13 07:05:40;;;;;;;16.37;8.50;;;;;;;-0.85;100.00;99534.06;5034151;28;20131;-68
2024/02/13 07:08:06;;;;;;;18.87;8.70;;;;;;;-0.90;100.00;99530.03;5030876;28;20056;-69
2024/02/13 07:10:32;;;;;;;19.27;9.53;;;;;;;-0.92;100.00;99524.91;5018902;28;20049;-69
2024/02/13 07:13:18;;;;;;;17.40;8.87;;;;;;;-0.91;100.00;99526.59;5022983;28;20053;-68
2024/02/13 07:15:44;;;;;;;17.33;9.10;;;;;;;-0.86;100.00;99531.53;5034002;28;20437;-69
2024/02/13 07:18:09;;;;;;;16.77;8.40;;;;;;;-0.80;100.00;99539.81;5001429;28;20048;-69
2024/02/13 07:20:35;;;;;;;18.17;8.40;;;;;;;-0.74;100.00;99542.06;5017716;28;20041;-69
2024/02/13 07:23:02;;;;;;;15.37;8.40;;;;;;;-0.64;100.00;99543.22;5051270;28;20048;-69
2024/02/13 07:25:29;;;;;;;19.10;9.47;;;;;;;-0.63;100.00;99544.06;5034471;28;20544;-67
2024/02/13 07:27:56;;;;;;;19.90;9.97;;;;;;;-0.63;100.00;99549.28;5052300;28;20045;-69
2024/02/13 07:30:22;;;;;;;20.30;9.30;;;;;;;-0.59;100.00;99558.59;5017315;28;20040;-67
2024/02/13 07:32:49;;;;;;;18.77;9.97;;;;;;;-0.55;100.00;99560.91;5051256;28;20352;-67
2024/02/13 07:35:15;;;;;;;18.33;9.40;;;;;;;-0.47;100.00;99563.91;5051783;28;20083;-68
2024/02/13 07:37:58;;;;;;;16.47;9.27;;;;;;;-0.42;100.00;99572.31;5049773;28;20062;-69
2024/02/13 07:40:24;;;;;;;23.77;9.37;;;;;;;-0.44;100.00;99566.34;5049923;28;20037;-67
2024/02/13 07:42:50;;;;;;;17.90;9.57;;;;;;;-0.35;100.00;99573.63;5033679;28;20048;-67
2024/02/13 07:45:15;;;;;;;17.53;9.13;;;;;;;-0.34;100.00;99575.28;5050892;28;20110;-69
2024/02/13 07:48:02;;;;;;;18.37;9.60;;;;;;;-0.23;100.00;99569.44;5049965;28;20378;-67
2024/02/13 07:50:28;;;;;;;21.80;10.50;;;;;;;-0.24;100.00;99565.16;5050826;28;20056;-67
2024/02/13 07:52:54;;;;;;;20.97;10.10;;;;;;;-0.24;100.00;99566.00;5033186;28;20079;-69
2024/02/13 07:55:20;;;;;;;17.00;9.50;;;;;;;-0.22;100.00;99568.50;5033314;28;20041;-68
2024/02/13 07:57:50;;;;;;;20.53;10.03;;;;;;;-0.22;100.00;99574.56;5050052;28;20044;-68
2024/02/13 08:00:19;;;;;;;19.85;10.00;;;;;;;-0.23;100.00;99572.88;5016528;28;20122;-67
2024/02/13 08:02:51;;;;;;;17.75;9.27;;;;;;;-0.14;100.00;99584.56;5017742;28;20056;-67
2024/02/13 08:05:17;;;;;;;19.02;9.55;;;;;;;-0.23;100.00;99593.75;5016107;28;20148;-68
2024/02/13 08:07:42;;;;;;;16.53;9.30;;;;;;;-0.20;100.00;99588.34;5015472;28;20135;-68
2024/02/13 08:10:11;;;;;;;19.97;9.63;;;;;;;-0.17;100.00;99582.94;5048168;28;20041;-69
2024/02/13 08:12:37;;;;;;;20.20;9.40;;;;;;;-0.08;100.00;99577.16;5031882;28;20111;-69
2024/02/13 08:15:04;;;;;;;20.60;9.87;;;;;;;-0.05;100.00;99584.81;5032011;28;20048;-67
2024/02/13 08:17:33;;;;;;;19.40;10.20;;;;;;;-0.09;100.00;99595.53;5033018;28;20060;-70
2024/02/13 08:20:00;;;;;;;19.70;9.80;;;;;;;-0.05;100.00;99589.22;5048564;28;20092;-71
2024/02/13 08:22:26;;;;;;;21.00;9.80;;;;;;;-0.06;100.00;99601.41;5031630;28;20426;-67
2024/02/13 08:24:52;;;;;;;21.17;10.50;;;;;;;0.02;100.00;99594.91;5016343;28;20076;-67
2024/02/13 08:27:18;;;;;;;17.70;9.87;;;;;;;0.09;100.00;99604.88;5003957;28;20656;-67
2024/02/13 08:29:44;;;;;;;21.97;10.30;;;;;;;0.08;100.00;99607.59;5057109;28;20099;-67
2024/02/13 08:32:10;;;;;;;19.03;9.77;;;;;;;0.03;100.00;99593.97;5056963;28;20056;-68
2024/02/13 08:34:38;;;;;;;18.17;9.10;;;;;;;0.13;100.00;99603.75;5055419;28;20386;-67
2024/02/13 08:37:04;;;;;;;17.00;8.93;;;;;;;0.28;100.00;99604.59;5053455;28;20056;-68
2024/02/13 08:39:29;;;;;;;19.47;9.57;;;;;;;0.27;100.00;99613.34;5053429;28;20044;-68
2024/02/13 08:41:58;;;;;;;17.87;9.20;;;;;;;0.31;100.00;99613.06;5036826;28;20194;-68
2024/02/13 08:44:24;;;;;;;18.30;9.57;;;;;;;0.26;100.00;99617.75;5037249;28;20080;-67
2024/02/13 08:46:50;;;;;;;17.50;8.67;;;;;;;0.22;100.00;99626.69;5054423;28;20037;-66
2024/02/13 08:49:17;;;;;;;17.30;9.97;;;;;;;0.17;100.00;99617.47;5054332;28;20425;-67
2024/02/13 08:51:43;;;;;;;17.73;9.00;;;;;;;0.15;100.00;99625.38;5020092;28;20074;-68
2024/02/13 08:54:11;;;;;;;18.37;8.90;;;;;;;0.20;100.00;99625.09;5042859;28;20045;-68
2024/02/13 08:56:39;;;;;;;15.73;8.30;;;;;;;0.28;100.00;99630.72;5033062;28;20132;-67
2024/02/13 08:59:06;;;;;;;17.83;8.80;;;;;;;0.31;100.00;99625.28;5016535;28;20045;-69
2024/02/13 09:01:33;;;;;;;17.00;8.83;;;;;;;0.41;100.00;99626.38;5034253;28;20045;-71
2024/02/13 09:04:01;;;;;;;18.90;9.07;;;;;;;0.39;100.00;99623.03;5016306;28;20049;-69
2024/02/13 09:06:27;;;;;;;17.10;9.20;;;;;;;0.38;100.00;99627.44;5000022;28;20128;-68
2024/02/13 09:08:54;;;;;;;14.50;8.87;;;;;;;0.44;100.00;99631.41;4999871;28;20071;-68
2024/02/13 09:11:20;;;;;;;14.50;8.13;;;;;;;0.49;100.00;99624.16;5033367;28;20037;-67
2024/02/13 09:13:46;;;;;;;13.33;8.07;;;;;;;0.53;100.00;99634.31;5016376;28;20049;-67
2024/02/13 09:16:11;;;;;;;12.83;7.37;;;;;;;0.63;100.00;99631.97;5032532;28;20139;-68
2024/02/13 09:18:38;;;;;;;14.80;8.40;;;;;;;0.75;100.00;99636.41;5016262;28;20041;-68
2024/02/13 09:21:06;;;;;;;18.87;7.77;;;;;;;0.97;100.00;99637.56;5016121;28;20773;-69
2024/02/13 09:23:34;;;;;;;14.53;7.90;;;;;;;1.19;100.00;99644.88;5000702;28;20140;-67
2024/02/13 09:26:00;;;;;;;17.70;9.37;;;;;;;1.15;100.00;99635.56;5032820;28;20364;-66
2024/02/13 09:28:26;;;;;;;17.27;8.23;;;;;;;1.25;100.00;99644.47;5016530;28;20037;-67
2024/02/13 09:30:52;;;;;;;16.17;8.53;;;;;;;1.30;100.00;99647.63;5032109;28;20471;-66
2024/02/13 09:33:21;;;;;;;15.30;8.83;;;;;;;1.29;100.00;99654.63;4999888;28;20053;-67
2024/02/13 09:35:51;;;;;;;16.70;9.00;;;;;;;1.35;100.00;99648.16;5033904;28;20076;-67
2024/02/13 09:38:19;;;;;;;16.47;8.47;;;;;;;1.39;100.00;99654.88;5016465;28;20048;-67
2024/02/13 09:40:48;;;;;;;15.07;8.67;;;;;;;1.44;100.00;99658.03;5016389;28;20079;-66
2024/02/13 09:43:15;;;;;;;17.30;9.23;;;;;;;1.55;100.00;99653.75;5032233;28;20491;-67
2024/02/13 09:45:43;;;;;;;11.80;7.70;;;;;;;1.58;100.00;99669.25;5032090;28;20080;-68
2024/02/13 09:48:20;;;;;;;17.07;8.87;;;;;;;1.68;100.00;99661.63;5031848;28;20049;-67
2024/02/13 09:50:49;;;;;;;15.13;8.13;;;;;;;1.56;100.00;99667.69;4999554;28;20138;-66
2024/02/13 09:53:25;;;;;;;15.10;7.93;;;;;;;1.62;100.00;99668.13;5033206;28;20037;-67
2024/02/13 09:55:53;;;;;;;13.70;7.87;;;;;;;1.63;100.00;99668.94;4999383;28;20073;-66
2024/02/13 09:58:20;;;;;;;18.27;8.93;;;;;;;1.68;100.00;99662.50;5015562;28;20495;-67
2024/02/13 10:00:47;;;;;;;14.17;8.30;;;;;;;1.71;100.00;99671.91;4998268;28;20178;-67
2024/02/13 10:03:13;;;;;;;18.93;9.30;;;;;;;1.61;100.00;99670.84;4997840;28;20053;-67
2024/02/13 10:05:42;;;;;;;18.80;9.53;;;;;;;1.60;100.00;99679.63;5014245;28;20472;-67
2024/02/13 10:08:08;;;;;;;15.60;9.10;;;;;;;1.55;100.00;99685.16;5014420;28;20049;-66
2024/02/13 10:10:36;;;;;;;18.50;9.20;;;;;;;1.59;100.00;99691.03;5000247;28;20490;-67
2024/02/13 10:13:03;;;;;;;18.20;8.93;;;;;;;1.53;100.00;99683.59;5012795;28;20107;-67
2024/02/13 10:15:40;;;;;;;14.40;8.33;;;;;;;1.53;100.00;99683.59;5030720;28;20100;-68
2024/02/13 10:18:08;;;;;;;16.77;9.00;;;;;;;1.45;100.00;99691.09;5030837;28;20053;-68
2024/02/13 10:20:36;;;;;;;17.27;9.57;;;;;;;1.36;100.00;99686.47;4997556;28;20445;-65
2024/02/13 10:23:04;;;;;;;22.30;10.23;;;;;;;1.31;100.00;99693.75;5013380;28;20045;-66
2024/02/13 10:25:33;;;;;;;18.93;9.97;;;;;;;1.23;100.00;99696.06;5013774;28;20053;-67
2024/02/13 10:28:02;;;;;;;15.82;9.40;;;;;;;1.26;100.00;99695.88;4997656;28;20049;-67
2024/02/13 10:30:30;;;;;;;17.67;9.17;;;;;;;1.27;100.00;99700.16;5013669;28;20045;-66
2024/02/13 10:33:00;;;;;;;18.50;9.27;;;;;;;1.17;100.00;99710.34;5016314;28;20060;-67
2024/02/13 10:35:29;;;;;;;17.50;9.43;;;;;;;0.97;100.00;99704.72;5016990;28;20513;-66
2024/02/13 10:37:56;;;;;;;16.97;9.60;;;;;;;0.97;100.00;99709.94;5033046;28;20471;-67
2024/02/13 10:40:26;;;;;;;15.20;8.90;;;;;;;1.00;100.00;99722.84;5033087;28;20124;-68
2024/02/13 10:42:57;;;;;;;19.05;9.57;;;;;;;0.95;100.00;99732.72;5049395;28;20049;-66
2024/02/13 10:45:30;;;;;;;20.27;10.00;;;;;;;0.91;100.00;99720.75;5014757;28;20484;-67
2024/02/13 10:48:16;;;;;;;17.73;9.33;;;;;;;0.83;100.00;99728.28;5016530;28;20566;-67
2024/02/13 10:50:43;;;;;;;17.57;9.67;;;;;;;0.83;100.00;99731.69;5029940;28;20053;-66
2024/02/13 10:53:10;;;;;;;18.37;9.27;;;;;;;0.88;100.00;99720.97;5013886;28;20041;-66
2024/02/13 10:55:40;;;;;;;16.37;8.70;;;;;;;0.88;100.00;99727.03;5014808;28;20049;-66
2024/02/13 10:58:06;;;;;;;19.73;9.47;;;;;;;0.92;100.00;99725.09;5031429;28;20048;-67
2024/02/13 11:00:32;;;;;;;18.37;9.50;;;;;;;0.93;100.00;99732.81;4998620;28;20185;-67
2024/02/13 11:02:58;;;;;;;18.97;9.67;;;;;;;0.90;100.00;99729.56;5030335;28;20188;-68
2024/02/13 11:05:27;;;;;;;17.30;8.87;;;;;;;0.93;100.00;99731.97;5030416;28;20128;-67
2024/02/13 11:07:55;;;;;;;17.00;9.33;;;;;;;0.79;100.00;99727.63;4997908;28;20055;-66
2024/02/13 11:10:29;;;;;;;19.13;10.13;;;;;;;0.84;100.00;99740.41;5031614;28;20037;-66
2024/02/13 11:12:55;;;;;;;19.67;10.13;;;;;;;0.68;100.00;99729.19;5029676;28;20483;-67
2024/02/13 11:15:20;;;;;;;19.67;10.13;;;;;;;0.67;100.00;99724.91;5030126;28;20041;-68
2024/02/13 11:18:13;;;;;;;19.13;9.70;;;;;;;0.79;100.00;99721.53;5016571;28;20117;-68
2024/02/13 11:20:43;;;;;;;17.63;9.20;;;;;;;0.78;100.00;99719.88;5015096;28;20041;-67
2024/02/13 11:23:29;;;;;;;19.60;10.27;;;;;;;0.66;100.00;99721.44;5016998;28;20533;-68
2024/02/13 11:25:59;;;;;;;22.73;10.03;;;;;;;0.64;100.00;99712.88;4997298;28;20523;-66
2024/02/13 11:28:32;;;;;;;20.00;10.30;;;;;;;0.60;100.00;99718.38;5031138;28;20399;-65
2024/02/13 11:31:00;;;;;;;20.67;10.80;;;;;;;0.38;100.00;99720.63;5030818;28;20136;-66